createdAt,value
2018-05-17T00:01:49.848Z,17.60
2018-05-17T00:04:18.071Z,17.60
2018-05-17T00:06:45.530Z,17.50
2018-05-17T00:09:13.013Z,17.60
2018-05-17T00:11:40.559Z,17.50
2018-05-17T00:14:08.134Z,17.50
2018-05-17T00:16:35.615Z,17.50
2018-05-17T00:19:03.155Z,17.40
2018-05-17T00:21:31.384Z,17.50
2018-05-17T00:23:58.843Z,17.40
2018-05-17T00:26:26.329Z,17.30
2018-05-17T00:28:53.880Z,17.30
2018-05-17T00:31:21.357Z,17.30
2018-05-17T00:33:48.840Z,17.30
2018-05-17T00:36:16.336Z,17.40
2018-05-17T00:38:43.812Z,17.30
2018-05-17T00:41:11.278Z,17.30
2018-05-17T00:43:38.752Z,17.30
2018-05-17T00:46:06.978Z,17.20
2018-05-17T00:48:34.468Z,17.20
2018-05-17T00:51:03.458Z,17.10
2018-05-17T00:53:31.621Z,17.10
2018-05-17T00:55:59.191Z,17.10
2018-05-17T00:58:26.650Z,17.10
2018-05-17T01:00:54.922Z,17.10
2018-05-17T01:03:22.484Z,17.00
2018-05-17T01:05:49.956Z,17.10
2018-05-17T01:08:18.198Z,17.10
2018-05-17T01:10:45.720Z,17.00
2018-05-17T01:13:13.247Z,17.00
2018-05-17T01:15:42.191Z,17.00
2018-05-17T01:18:09.661Z,17.00
2018-05-17T01:20:37.241Z,17.10
2018-05-17T01:23:04.792Z,17.10
2018-05-17T01:25:32.356Z,17.10
2018-05-17T01:27:59.828Z,17.10
2018-05-17T01:30:28.052Z,17.00
2018-05-17T01:32:55.696Z,16.90
2018-05-17T01:35:23.207Z,16.90
2018-05-17T01:38:03.287Z,16.90
2018-05-17T01:40:30.754Z,16.80
2018-05-17T01:42:58.227Z,16.80
2018-05-17T01:45:25.691Z,16.80
2018-05-17T01:47:53.154Z,16.90
2018-05-17T01:50:20.634Z,16.90
2018-05-17T01:52:48.101Z,16.90
2018-05-17T01:55:15.586Z,16.90
2018-05-17T01:57:43.054Z,16.90
2018-05-17T02:00:10.604Z,16.90
2018-05-17T02:02:38.010Z,16.90
2018-05-17T02:05:05.482Z,16.90
2018-05-17T02:07:33.740Z,16.80
2018-05-17T02:10:01.224Z,16.80
2018-05-17T02:12:29.508Z,16.70
2018-05-17T02:14:57.746Z,16.60
2018-05-17T02:17:25.323Z,16.50
2018-05-17T02:19:52.786Z,16.50
2018-05-17T02:22:21.038Z,16.40
2018-05-17T02:24:48.620Z,16.40
2018-05-17T02:27:16.881Z,16.30
2018-05-17T02:29:45.242Z,16.30
2018-05-17T02:32:12.724Z,16.20
2018-05-17T02:34:40.207Z,16.20
2018-05-17T02:37:08.439Z,16.20
2018-05-17T02:39:36.055Z,16.10
2018-05-17T02:42:03.577Z,16.20
2018-05-17T02:44:31.070Z,16.10
2018-05-17T02:46:58.538Z,16.00
2018-05-17T02:49:26.002Z,16.00
2018-05-17T02:51:53.466Z,16.00
2018-05-17T02:54:20.942Z,16.00
2018-05-17T02:56:48.503Z,15.90
2018-05-17T02:59:16.079Z,15.80
2018-05-17T03:01:43.553Z,15.90
2018-05-17T03:04:11.796Z,15.70
2018-05-17T03:06:39.380Z,15.70
2018-05-17T03:09:07.645Z,15.70
2018-05-17T03:11:35.132Z,15.70
2018-05-17T03:14:02.665Z,15.70
2018-05-17T03:16:30.947Z,15.70
2018-05-17T03:18:59.201Z,15.60
2018-05-17T03:21:26.823Z,15.50
2018-05-17T03:23:54.320Z,15.50
2018-05-17T03:26:22.590Z,15.40
2018-05-17T03:28:50.061Z,15.40
2018-05-17T03:31:17.625Z,15.40
2018-05-17T03:33:45.899Z,15.40
2018-05-17T03:36:13.456Z,15.30
2018-05-17T03:38:40.957Z,15.30
2018-05-17T03:41:08.419Z,15.30
2018-05-17T03:43:35.932Z,15.40
2018-05-17T03:46:03.420Z,15.30
2018-05-17T03:48:30.917Z,15.40
2018-05-17T03:50:58.418Z,15.40
2018-05-17T03:53:26.684Z,15.40
2018-05-17T03:55:54.936Z,15.40
2018-05-17T03:58:22.424Z,15.30
2018-05-17T04:01:02.675Z,15.30
2018-05-17T04:03:43.001Z,15.40
2018-05-17T04:06:22.618Z,15.30
2018-05-17T04:08:50.120Z,15.30
2018-05-17T04:11:18.355Z,15.30
2018-05-17T04:13:45.809Z,15.30
2018-05-17T04:16:13.278Z,15.30
2018-05-17T04:18:40.784Z,15.10
2018-05-17T04:21:09.052Z,15.20
2018-05-17T04:23:37.314Z,15.30
2018-05-17T04:26:04.889Z,15.30
2018-05-17T04:28:33.112Z,15.30
2018-05-17T04:31:00.587Z,15.20
2018-05-17T04:33:28.053Z,15.20
2018-05-17T04:35:55.536Z,15.30
2018-05-17T04:38:23.887Z,15.40
2018-05-17T04:40:51.474Z,15.30
2018-05-17T04:43:19.736Z,15.40
2018-05-17T04:45:47.228Z,15.40
2018-05-17T04:48:14.768Z,15.50
2018-05-17T04:50:43.014Z,15.50
2018-05-17T04:53:10.501Z,15.50
2018-05-17T04:55:38.744Z,15.50
2018-05-17T04:58:06.219Z,15.40
2018-05-17T05:00:34.464Z,15.60
2018-05-17T05:03:02.055Z,15.50
2018-05-17T05:05:29.422Z,15.70
2018-05-17T05:07:57.686Z,15.90
2018-05-17T05:10:25.966Z,15.90
2018-05-17T05:12:54.207Z,16.00
2018-05-17T05:15:21.777Z,16.00
2018-05-17T05:17:49.268Z,16.10
2018-05-17T05:20:16.799Z,16.20
2018-05-17T05:22:44.350Z,16.20
2018-05-17T05:25:11.947Z,16.20
2018-05-17T05:27:39.376Z,16.20
2018-05-17T05:30:06.945Z,16.20
2018-05-17T05:32:35.178Z,16.30
2018-05-17T05:35:02.664Z,16.20
2018-05-17T05:37:30.205Z,16.30
2018-05-17T05:39:58.380Z,16.40
2018-05-17T05:42:25.849Z,16.30
2018-05-17T05:44:53.344Z,16.40
2018-05-17T05:47:20.864Z,16.40
2018-05-17T05:49:48.369Z,16.40
2018-05-17T05:52:15.883Z,16.40
2018-05-17T05:54:43.365Z,16.40
2018-05-17T05:57:11.714Z,16.50
2018-05-17T05:59:39.186Z,16.40
2018-05-17T06:02:07.448Z,16.70
2018-05-17T06:04:34.941Z,16.60
2018-05-17T06:07:02.416Z,16.80
2018-05-17T06:09:29.897Z,16.90
2018-05-17T06:11:57.379Z,17.00
2018-05-17T06:14:24.854Z,17.10
2018-05-17T06:16:53.124Z,17.20
2018-05-17T06:19:20.593Z,17.20
2018-05-17T06:21:48.838Z,17.40
2018-05-17T06:24:16.404Z,17.40
2018-05-17T06:26:44.645Z,17.50
2018-05-17T06:29:12.132Z,17.50
2018-05-17T06:31:39.701Z,17.50
2018-05-17T06:34:07.204Z,17.40
2018-05-17T06:36:34.725Z,17.40
2018-05-17T06:39:02.974Z,17.60
2018-05-17T06:41:30.538Z,17.50
2018-05-17T06:43:58.080Z,17.70
2018-05-17T06:46:26.252Z,17.60
2018-05-17T06:48:53.728Z,17.60
2018-05-17T06:51:21.211Z,17.70
2018-05-17T06:53:49.461Z,17.80
2018-05-17T06:56:16.918Z,17.70
2018-05-17T06:58:45.920Z,17.90
2018-05-17T07:01:14.970Z,18.00
2018-05-17T07:03:43.157Z,18.00
2018-05-17T07:06:10.622Z,18.00
2018-05-17T07:08:38.196Z,18.00
2018-05-17T07:11:05.761Z,18.10
2018-05-17T07:13:33.236Z,18.20
2018-05-17T07:16:01.469Z,18.30
2018-05-17T07:18:28.990Z,18.30
2018-05-17T07:20:56.423Z,18.30
2018-05-17T07:23:24.684Z,18.40
2018-05-17T07:25:52.234Z,18.40
2018-05-17T07:28:21.235Z,18.50
2018-05-17T07:30:48.808Z,18.50
2018-05-17T07:33:17.062Z,18.70
2018-05-17T07:35:44.570Z,18.60
2018-05-17T07:38:12.077Z,18.60
2018-05-17T07:40:39.557Z,18.50
2018-05-17T07:43:07.790Z,18.50
2018-05-17T07:45:35.381Z,18.40
2018-05-17T07:48:02.922Z,18.40
2018-05-17T07:50:31.166Z,18.40
2018-05-17T07:52:59.522Z,18.30
2018-05-17T07:55:26.988Z,18.50
2018-05-17T07:57:54.452Z,18.50
2018-05-17T08:00:22.045Z,18.60
2018-05-17T08:02:49.533Z,18.60
2018-05-17T08:05:17.784Z,18.60
2018-05-17T08:07:45.242Z,18.60
2018-05-17T08:10:12.728Z,18.50
2018-05-17T08:12:40.946Z,18.50
2018-05-17T08:15:08.424Z,18.50
2018-05-17T08:17:35.894Z,18.70
2018-05-17T08:20:03.374Z,18.90
2018-05-17T08:22:30.852Z,18.90
2018-05-17T08:24:58.368Z,19.00
2018-05-17T08:27:25.841Z,19.00
2018-05-17T08:29:54.083Z,19.10
2018-05-17T08:32:22.311Z,19.00
2018-05-17T08:34:49.777Z,19.00
2018-05-17T08:37:17.229Z,19.00
2018-05-17T08:39:44.752Z,19.00
2018-05-17T08:42:12.997Z,19.00
2018-05-17T08:44:40.510Z,19.00
2018-05-17T08:47:07.987Z,19.10
2018-05-17T08:49:35.515Z,19.30
2018-05-17T08:52:03.728Z,19.70
2018-05-17T08:54:31.214Z,19.60
2018-05-17T08:56:58.677Z,19.70
2018-05-17T08:59:26.238Z,19.50
2018-05-17T09:01:54.511Z,19.30
2018-05-17T09:04:21.980Z,19.30
2018-05-17T09:06:50.217Z,19.50
2018-05-17T09:09:17.708Z,19.50
2018-05-17T09:11:45.178Z,19.50
2018-05-17T09:14:13.440Z,19.70
2018-05-17T09:16:41.757Z,19.60
2018-05-17T09:19:09.230Z,19.60
2018-05-17T09:21:36.696Z,19.60
2018-05-17T09:24:04.212Z,19.50
2018-05-17T09:26:31.740Z,19.40
2018-05-17T09:28:59.206Z,19.30
2018-05-17T09:31:27.478Z,19.10
2018-05-17T09:33:55.711Z,19.20
2018-05-17T09:36:23.213Z,19.10
2018-05-17T09:38:51.527Z,19.20
2018-05-17T09:41:19.128Z,19.10
2018-05-17T09:43:47.268Z,19.50
2018-05-17T09:46:14.736Z,19.50
2018-05-17T09:48:42.232Z,19.70
2018-05-17T09:51:10.506Z,19.90
2018-05-17T09:53:38.740Z,20.00
2018-05-17T09:56:06.227Z,19.90
2018-05-17T09:58:33.717Z,20.10
2018-05-17T10:01:01.973Z,20.00
2018-05-17T10:03:30.205Z,20.00
2018-05-17T10:05:57.708Z,19.90
2018-05-17T10:08:25.984Z,19.80
2018-05-17T10:10:54.275Z,19.50
2018-05-17T10:13:22.523Z,19.40
2018-05-17T10:15:50.113Z,19.30
2018-05-17T10:18:17.647Z,19.50
2018-05-17T10:20:45.918Z,20.20
2018-05-17T10:23:14.147Z,20.50
2018-05-17T10:25:42.601Z,20.40
2018-05-17T10:28:10.091Z,20.80
2018-05-17T10:30:37.590Z,20.80
2018-05-17T10:33:05.131Z,20.60
2018-05-17T10:35:32.599Z,20.60
2018-05-17T10:38:00.079Z,20.30
2018-05-17T10:40:28.302Z,19.90
2018-05-17T10:42:55.812Z,19.90
2018-05-17T10:45:24.444Z,20.70
2018-05-17T10:47:51.933Z,20.60
2018-05-17T10:50:19.394Z,20.90
2018-05-17T10:52:47.648Z,21.00
2018-05-17T10:55:15.879Z,21.10
2018-05-17T10:57:43.356Z,21.00
2018-05-17T11:00:10.897Z,21.10
2018-05-17T11:02:38.376Z,20.90
2018-05-17T11:05:05.823Z,20.50
2018-05-17T11:07:33.278Z,20.30
2018-05-17T11:10:00.760Z,20.40
2018-05-17T11:12:28.228Z,20.50
2018-05-17T11:14:55.704Z,20.70
2018-05-17T11:17:23.935Z,21.10
2018-05-17T11:19:51.404Z,21.00
2018-05-17T11:22:18.895Z,21.40
2018-05-17T11:24:47.122Z,21.30
2018-05-17T11:27:14.615Z,21.30
2018-05-17T11:29:42.098Z,21.40
2018-05-17T11:32:10.337Z,21.10
2018-05-17T11:34:39.302Z,21.00
2018-05-17T11:37:06.792Z,21.00
2018-05-17T11:39:34.362Z,21.00
2018-05-17T11:42:01.916Z,21.20
2018-05-17T11:44:30.894Z,21.40
2018-05-17T11:46:58.366Z,21.40
2018-05-17T11:49:25.831Z,21.30
2018-05-17T11:51:54.060Z,21.70
2018-05-17T11:54:21.526Z,21.60
2018-05-17T11:56:48.992Z,21.90
2018-05-17T11:59:16.468Z,22.30
2018-05-17T12:01:43.951Z,22.40
2018-05-17T12:04:11.480Z,22.30
2018-05-17T12:06:38.942Z,22.40
2018-05-17T12:09:06.483Z,22.70
2018-05-17T12:11:34.035Z,23.00
2018-05-17T12:14:01.517Z,23.20
2018-05-17T12:16:28.984Z,23.10
2018-05-17T12:18:57.233Z,22.80
2018-05-17T12:21:24.705Z,22.80
2018-05-17T12:23:52.182Z,22.60
2018-05-17T12:26:19.661Z,22.10
2018-05-17T12:28:47.133Z,21.90
2018-05-17T12:31:14.585Z,22.20
2018-05-17T12:33:42.077Z,22.50
2018-05-17T12:36:09.586Z,23.00
2018-05-17T12:38:37.093Z,23.20
2018-05-17T12:41:04.568Z,23.00
2018-05-17T12:43:32.838Z,22.70
2018-05-17T12:46:00.374Z,22.70
2018-05-17T12:48:27.884Z,22.90
2018-05-17T12:50:55.373Z,22.90
2018-05-17T12:53:22.826Z,23.00
2018-05-17T12:55:50.290Z,23.20
2018-05-17T12:58:17.750Z,23.20
2018-05-17T13:00:45.329Z,22.90
2018-05-17T13:03:12.877Z,22.80
2018-05-17T13:05:40.451Z,23.20
2018-05-17T13:08:07.917Z,23.50
2018-05-17T13:10:36.139Z,23.90
2018-05-17T13:13:03.701Z,23.90
2018-05-17T13:15:31.187Z,24.10
2018-05-17T13:17:58.647Z,24.10
2018-05-17T13:20:26.194Z,23.90
2018-05-17T13:22:53.691Z,24.20
2018-05-17T13:25:21.934Z,23.90
2018-05-17T13:27:49.400Z,23.80
2018-05-17T13:30:17.038Z,23.80
2018-05-17T13:32:45.201Z,23.90
2018-05-17T13:35:12.667Z,23.80
2018-05-17T13:37:40.127Z,24.00
2018-05-17T13:40:07.605Z,24.40
2018-05-17T13:42:35.839Z,24.70
2018-05-17T13:45:03.354Z,24.60
2018-05-17T13:47:31.582Z,23.90
2018-05-17T13:49:59.051Z,23.90
2018-05-17T13:52:26.513Z,23.80
2018-05-17T13:54:53.988Z,23.60
2018-05-17T13:57:21.455Z,23.40
2018-05-17T13:59:49.694Z,23.30
2018-05-17T14:02:17.226Z,23.30
2018-05-17T14:04:45.497Z,23.70
2018-05-17T14:07:13.021Z,23.60
2018-05-17T14:09:41.405Z,24.50
2018-05-17T14:12:08.820Z,24.40
2018-05-17T14:14:36.282Z,24.80
2018-05-17T14:17:03.765Z,25.10
2018-05-17T14:19:32.000Z,24.80
2018-05-17T14:21:59.471Z,24.80
2018-05-17T14:24:26.936Z,24.70
2018-05-17T14:26:54.490Z,24.60
2018-05-17T14:29:21.961Z,24.60
2018-05-17T14:31:49.547Z,24.40
2018-05-17T14:34:17.022Z,24.20
2018-05-17T14:36:44.529Z,24.10
2018-05-17T14:39:12.080Z,24.00
2018-05-17T14:41:39.540Z,23.80
2018-05-17T14:44:07.100Z,23.70
2018-05-17T14:46:34.683Z,23.80
2018-05-17T14:49:02.912Z,23.80
2018-05-17T14:51:30.388Z,23.80
2018-05-17T14:53:57.854Z,23.80
2018-05-17T14:56:25.348Z,23.60
2018-05-17T14:58:52.920Z,23.60
2018-05-17T15:01:20.482Z,23.50
2018-05-17T15:03:47.881Z,23.40
2018-05-17T15:06:15.356Z,23.50
2018-05-17T15:08:43.683Z,23.70
2018-05-17T15:11:14.748Z,23.60
2018-05-17T15:13:39.332Z,23.80
2018-05-17T15:16:06.926Z,23.80
2018-05-17T15:18:35.202Z,23.80
2018-05-17T15:21:03.464Z,23.80
2018-05-17T15:23:30.949Z,23.80
2018-05-17T15:25:58.641Z,24.10
2018-05-17T15:28:26.123Z,24.40
2018-05-17T15:30:53.600Z,24.50
2018-05-17T15:33:21.072Z,24.50
2018-05-17T15:35:49.306Z,24.20
2018-05-17T15:38:16.767Z,24.20
2018-05-17T15:40:44.236Z,24.20
2018-05-17T15:43:11.730Z,24.30
2018-05-17T15:45:39.205Z,24.40
2018-05-17T15:48:06.726Z,24.50
2018-05-17T15:50:34.254Z,24.60
2018-05-17T15:53:01.739Z,25.00
2018-05-17T15:55:29.980Z,25.10
2018-05-17T15:57:57.549Z,25.10
2018-05-17T16:00:25.252Z,25.30
2018-05-17T16:02:52.757Z,25.30
2018-05-17T16:05:20.229Z,25.30
2018-05-17T16:07:47.791Z,25.20
2018-05-17T16:10:15.339Z,25.00
2018-05-17T16:12:42.799Z,25.00
2018-05-17T16:15:10.508Z,25.00
2018-05-17T16:17:38.628Z,24.90
2018-05-17T16:20:06.110Z,24.80
2018-05-17T16:22:34.362Z,24.40
2018-05-17T16:25:01.833Z,24.30
2018-05-17T16:27:29.308Z,24.10
2018-05-17T16:29:57.712Z,23.80
2018-05-17T16:32:25.250Z,23.70
2018-05-17T16:34:53.509Z,23.70
2018-05-17T16:37:21.061Z,23.70
2018-05-17T16:39:48.606Z,23.80
2018-05-17T16:42:16.172Z,23.90
2018-05-17T16:44:43.728Z,23.90
2018-05-17T16:47:11.196Z,23.80
2018-05-17T16:49:38.777Z,23.50
2018-05-17T16:52:07.026Z,23.50
2018-05-17T16:54:36.000Z,23.30
2018-05-17T16:57:03.450Z,23.30
2018-05-17T16:59:30.958Z,23.10
2018-05-17T17:01:59.197Z,22.70
2018-05-17T17:04:26.669Z,22.60
2018-05-17T17:06:55.064Z,22.40
2018-05-17T17:09:22.532Z,22.30
2018-05-17T17:11:50.008Z,22.30
2018-05-17T17:14:17.614Z,22.10
2018-05-17T17:16:45.181Z,21.90
2018-05-17T17:19:12.659Z,21.70
2018-05-17T17:21:40.904Z,21.70
2018-05-17T17:24:09.888Z,21.60
2018-05-17T17:26:37.368Z,21.60
2018-05-17T17:29:05.650Z,21.60
2018-05-17T17:31:33.894Z,21.50
2018-05-17T17:34:01.487Z,21.40
2018-05-17T17:36:29.816Z,21.30
2018-05-17T17:38:57.229Z,21.30
2018-05-17T17:41:24.710Z,21.30
2018-05-17T17:43:52.170Z,21.20
2018-05-17T17:46:19.634Z,21.30
2018-05-17T17:48:47.220Z,21.20
2018-05-17T17:51:15.395Z,21.00
2018-05-17T17:53:42.863Z,21.00
2018-05-17T17:56:10.318Z,20.90
2018-05-17T17:58:38.569Z,20.90
2018-05-17T18:01:06.147Z,20.80
2018-05-17T18:03:33.709Z,20.90
2018-05-17T18:06:01.191Z,20.80
2018-05-17T18:08:29.428Z,20.70
2018-05-17T18:10:56.894Z,20.60
2018-05-17T18:13:24.472Z,20.70
2018-05-17T18:15:52.640Z,20.50
2018-05-17T18:18:20.990Z,20.50
2018-05-17T18:20:48.461Z,20.50
2018-05-17T18:23:15.933Z,20.50
2018-05-17T18:25:44.154Z,20.30
2018-05-17T18:28:11.630Z,20.30
2018-05-17T18:30:39.094Z,20.30
2018-05-17T18:33:06.614Z,20.20
2018-05-17T18:35:34.112Z,20.20
2018-05-17T18:38:03.095Z,20.00
2018-05-17T18:40:30.662Z,20.00
2018-05-17T18:42:58.235Z,20.10
2018-05-17T18:45:25.705Z,20.10
2018-05-17T18:47:53.954Z,19.90
2018-05-17T18:50:21.513Z,19.80
2018-05-17T18:52:49.747Z,19.70
2018-05-17T18:55:22.914Z,19.60
2018-05-17T18:57:44.724Z,19.60
2018-05-17T19:00:13.007Z,19.40
2018-05-17T19:02:40.583Z,19.40
2018-05-17T19:05:08.007Z,19.30
2018-05-17T19:07:35.552Z,19.30
2018-05-17T19:12:38.554Z,19.10
2018-05-17T19:15:06.038Z,19.00
2018-05-17T19:17:34.266Z,19.00
2018-05-17T19:20:01.749Z,19.00
2018-05-17T19:22:29.209Z,19.00
2018-05-17T19:24:56.714Z,19.00
2018-05-17T19:27:24.203Z,19.00
2018-05-17T19:29:51.796Z,19.00
2018-05-17T19:32:20.041Z,18.90
2018-05-17T19:34:47.514Z,18.80
2018-05-17T19:37:15.060Z,18.80
2018-05-17T19:39:43.245Z,18.80
2018-05-17T19:42:10.805Z,18.80
2018-05-17T19:44:38.276Z,18.80
2018-05-17T19:47:06.521Z,18.70
2018-05-17T19:49:34.004Z,18.70
2018-05-17T19:52:01.473Z,18.70
2018-05-17T19:54:29.713Z,18.60
2018-05-17T19:56:57.175Z,18.50
2018-05-17T19:59:24.684Z,18.50
2018-05-17T20:01:52.910Z,18.50
2018-05-17T20:04:20.504Z,18.40
2018-05-17T20:06:48.050Z,18.40
2018-05-17T20:09:16.275Z,18.10
2018-05-17T20:11:43.815Z,18.10
2018-05-17T20:14:11.338Z,18.10
2018-05-17T20:16:39.574Z,18.00
2018-05-17T20:19:07.042Z,18.00
2018-05-17T20:21:36.017Z,17.90
2018-05-17T20:24:03.519Z,17.90
2018-05-17T20:26:31.774Z,17.80
2018-05-17T20:28:59.247Z,17.70
2018-05-17T20:31:27.562Z,17.60
2018-05-17T20:33:55.048Z,17.60
2018-05-17T20:36:22.500Z,17.50
2018-05-17T20:38:49.986Z,17.50
2018-05-17T20:41:17.442Z,17.50
2018-05-17T20:43:44.914Z,17.60
2018-05-17T20:46:13.178Z,17.40
2018-05-17T20:48:40.647Z,17.30
2018-05-17T20:51:08.916Z,17.30
2018-05-17T20:53:37.263Z,17.20
2018-05-17T20:56:04.733Z,17.20
2018-05-17T20:58:32.260Z,17.20
2018-05-17T21:00:59.732Z,17.20
2018-05-17T21:03:27.215Z,17.10
2018-05-17T21:05:55.488Z,16.90
2018-05-17T21:08:23.024Z,16.80
2018-05-17T21:10:50.488Z,16.80
2018-05-17T21:13:18.053Z,16.70
2018-05-17T21:15:45.550Z,16.60
2018-05-17T21:18:13.126Z,16.40
2018-05-17T21:20:40.623Z,16.20
2018-05-17T21:23:08.200Z,16.20
2018-05-17T21:25:35.761Z,16.20
2018-05-17T21:28:04.012Z,16.20
2018-05-17T21:30:31.497Z,16.10
2018-05-17T21:32:59.745Z,16.10
2018-05-17T21:35:28.725Z,15.90
2018-05-17T21:37:56.216Z,16.00
2018-05-17T21:40:23.776Z,16.00
2018-05-17T21:42:52.010Z,15.80
2018-05-17T21:45:19.608Z,15.70
2018-05-17T21:47:47.884Z,15.50
2018-05-17T21:50:15.431Z,15.50
2018-05-17T21:52:42.900Z,15.50
2018-05-17T21:55:11.146Z,15.30
2018-05-17T21:57:38.649Z,15.20
2018-05-17T22:00:06.909Z,15.10
2018-05-17T22:02:35.134Z,15.10
2018-05-17T22:05:02.617Z,15.00
2018-05-17T22:07:30.116Z,15.10
2018-05-17T22:09:58.419Z,15.00
2018-05-17T22:12:25.906Z,15.00
2018-05-17T22:14:53.371Z,15.00
2018-05-17T22:17:20.844Z,14.80
2018-05-17T22:19:48.307Z,14.80
2018-05-17T22:22:15.846Z,14.70
2018-05-17T22:24:43.406Z,14.60
2018-05-17T22:27:10.880Z,14.50
2018-05-17T22:29:39.117Z,14.50
2018-05-17T22:32:06.585Z,14.50
2018-05-17T22:34:34.160Z,14.50
2018-05-17T22:37:02.405Z,14.40
2018-05-17T22:39:29.876Z,14.30
2018-05-17T22:41:57.352Z,14.20
2018-05-17T22:44:25.618Z,14.20
2018-05-17T22:46:53.088Z,14.10
2018-05-17T22:49:22.089Z,14.10
2018-05-17T22:51:50.348Z,14.20
2018-05-17T22:54:17.812Z,14.10
2018-05-17T22:56:58.086Z,14.10
2018-05-17T22:59:26.339Z,14.20
2018-05-17T23:01:53.811Z,14.10
2018-05-17T23:04:22.087Z,14.10
2018-05-17T23:06:50.332Z,14.10
2018-05-17T23:09:17.854Z,14.10
2018-05-17T23:11:45.323Z,14.00
2018-05-17T23:14:12.824Z,13.90
2018-05-17T23:16:41.071Z,13.90
2018-05-17T23:19:08.546Z,13.80
2018-05-17T23:21:36.019Z,13.90
2018-05-17T23:24:04.280Z,13.90
2018-05-17T23:26:31.755Z,13.90
2018-05-17T23:29:00.011Z,13.80
2018-05-17T23:31:27.589Z,13.80
2018-05-17T23:33:55.852Z,13.80
2018-05-17T23:36:23.328Z,13.70
2018-05-17T23:38:50.848Z,13.80
2018-05-17T23:41:30.333Z,13.70
2018-05-17T23:43:57.869Z,13.70
2018-05-17T23:46:26.135Z,13.60
2018-05-17T23:48:53.600Z,13.60
2018-05-17T23:51:21.879Z,13.40
2018-05-17T23:53:50.107Z,13.50
2018-05-17T23:56:17.583Z,13.40
2018-05-17T23:58:45.068Z,13.50
